sensor_id;sensor_type;location;lat;lon;timestamp;temperature;humidity
3416;DHT22;1721;51.238;9.562;2024-03-17T00:00:05;9.10;87.40
3416;DHT22;1721;51.238;9.562;2024-03-17T00:02:30;9.10;87.30
3416;DHT22;1721;51.238;9.562;2024-03-17T00:04:56;9.10;86.90
3416;DHT22;1721;51.238;9.562;2024-03-17T00:07:22;9.10;87.20
3416;DHT22;1721;51.238;9.562;2024-03-17T00:09:48;9.00;87.10
3416;DHT22;1721;51.238;9.562;2024-03-17T00:12:13;9.00;87.30
3416;DHT22;1721;51.238;9.562;2024-03-17T00:14:39;9.00;87.60
3416;DHT22;1721;51.238;9.562;2024-03-17T00:17:05;8.90;87.70
3416;DHT22;1721;51.238;9.562;2024-03-17T00:19:30;8.80;87.80
3416;DHT22;1721;51.238;9.562;2024-03-17T00:21:56;8.80;87.80
3416;DHT22;1721;51.238;9.562;2024-03-17T00:24:21;8.80;88.00
3416;DHT22;1721;51.238;9.562;2024-03-17T00:26:47;8.80;88.00
3416;DHT22;1721;51.238;9.562;2024-03-17T00:29:13;8.80;88.10
3416;DHT22;1721;51.238;9.562;2024-03-17T00:31:40;8.70;88.10
3416;DHT22;1721;51.238;9.562;2024-03-17T00:34:06;8.70;88.20
3416;DHT22;1721;51.238;9.562;2024-03-17T00:36:31;8.70;88.20
3416;DHT22;1721;51.238;9.562;2024-03-17T00:38:57;8.70;88.20
3416;DHT22;1721;51.238;9.562;2024-03-17T00:41:23;8.60;88.40
3416;DHT22;1721;51.238;9.562;2024-03-17T00:43:49;8.60;88.40
3416;DHT22;1721;51.238;9.562;2024-03-17T00:46:15;8.50;88.90
3416;DHT22;1721;51.238;9.562;2024-03-17T00:48:41;8.50;89.00
3416;DHT22;1721;51.238;9.562;2024-03-17T00:51:06;8.50;89.20
3416;DHT22;1721;51.238;9.562;2024-03-17T00:53:32;8.40;89.10
3416;DHT22;1721;51.238;9.562;2024-03-17T00:55:58;8.30;89.20
3416;DHT22;1721;51.238;9.562;2024-03-17T00:58:24;8.20;89.40
3416;DHT22;1721;51.238;9.562;2024-03-17T01:00:49;8.20;89.40
3416;DHT22;1721;51.238;9.562;2024-03-17T01:03:16;8.20;89.50
3416;DHT22;1721;51.238;9.562;2024-03-17T01:05:42;8.20;89.80
3416;DHT22;1721;51.238;9.562;2024-03-17T01:08:09;8.10;89.90
3416;DHT22;1721;51.238;9.562;2024-03-17T01:10:40;8.10;89.90
3416;DHT22;1721;51.238;9.562;2024-03-17T01:13:07;8.10;90.10
3416;DHT22;1721;51.238;9.562;2024-03-17T01:15:34;8.10;90.10
3416;DHT22;1721;51.238;9.562;2024-03-17T01:18:00;8.10;90.30
3416;DHT22;1721;51.238;9.562;2024-03-17T01:20:26;8.10;90.20
3416;DHT22;1721;51.238;9.562;2024-03-17T01:22:51;8.10;90.20
3416;DHT22;1721;51.238;9.562;2024-03-17T01:25:17;8.10;90.20
3416;DHT22;1721;51.238;9.562;2024-03-17T01:27:42;8.10;90.10
3416;DHT22;1721;51.238;9.562;2024-03-17T01:30:10;8.00;90.10
3416;DHT22;1721;51.238;9.562;2024-03-17T01:32:35;8.00;90.00
3416;DHT22;1721;51.238;9.562;2024-03-17T01:35:01;8.00;90.00
3416;DHT22;1721;51.238;9.562;2024-03-17T01:37:27;7.90;89.80
3416;DHT22;1721;51.238;9.562;2024-03-17T01:39:52;7.90;89.70
3416;DHT22;1721;51.238;9.562;2024-03-17T01:42:18;7.80;89.50
3416;DHT22;1721;51.238;9.562;2024-03-17T01:44:43;7.80;89.40
3416;DHT22;1721;51.238;9.562;2024-03-17T01:47:09;7.70;89.20
3416;DHT22;1721;51.238;9.562;2024-03-17T01:49:35;7.60;88.90
3416;DHT22;1721;51.238;9.562;2024-03-17T01:52:02;7.50;88.60
3416;DHT22;1721;51.238;9.562;2024-03-17T01:54:29;7.40;88.70
3416;DHT22;1721;51.238;9.562;2024-03-17T01:56:55;7.30;88.60
3416;DHT22;1721;51.238;9.562;2024-03-17T01:59:20;7.20;88.40
3416;DHT22;1721;51.238;9.562;2024-03-17T02:01:46;7.10;88.30
3416;DHT22;1721;51.238;9.562;2024-03-17T02:04:12;7.00;88.30
3416;DHT22;1721;51.238;9.562;2024-03-17T02:06:37;6.90;88.40
3416;DHT22;1721;51.238;9.562;2024-03-17T02:09:04;6.80;88.40
3416;DHT22;1721;51.238;9.562;2024-03-17T02:11:32;6.70;88.70
3416;DHT22;1721;51.238;9.562;2024-03-17T02:14:01;6.60;89.00
3416;DHT22;1721;51.238;9.562;2024-03-17T02:16:27;6.60;89.00
3416;DHT22;1721;51.238;9.562;2024-03-17T02:18:56;6.50;89.30
3416;DHT22;1721;51.238;9.562;2024-03-17T02:21:23;6.30;89.50
3416;DHT22;1721;51.238;9.562;2024-03-17T02:23:50;6.10;90.10
3416;DHT22;1721;51.238;9.562;2024-03-17T02:26:16;5.90;90.10
3416;DHT22;1721;51.238;9.562;2024-03-17T02:28:43;5.90;90.40
3416;DHT22;1721;51.238;9.562;2024-03-17T02:31:10;5.90;90.40
3416;DHT22;1721;51.238;9.562;2024-03-17T02:33:37;5.90;90.30
3416;DHT22;1721;51.238;9.562;2024-03-17T02:36:03;6.00;90.10
3416;DHT22;1721;51.238;9.562;2024-03-17T02:38:30;5.90;89.60
3416;DHT22;1721;51.238;9.562;2024-03-17T02:41:15;5.80;90.00
3416;DHT22;1721;51.238;9.562;2024-03-17T02:43:41;5.80;90.10
3416;DHT22;1721;51.238;9.562;2024-03-17T02:46:06;5.80;90.00
3416;DHT22;1721;51.238;9.562;2024-03-17T02:48:34;5.80;89.80
3416;DHT22;1721;51.238;9.562;2024-03-17T02:51:02;5.80;89.40
3416;DHT22;1721;51.238;9.562;2024-03-17T02:53:30;5.70;89.10
3416;DHT22;1721;51.238;9.562;2024-03-17T02:55:56;5.70;88.80
3416;DHT22;1721;51.238;9.562;2024-03-17T02:58:21;5.60;89.60
3416;DHT22;1721;51.238;9.562;2024-03-17T03:00:47;5.60;89.10
3416;DHT22;1721;51.238;9.562;2024-03-17T03:03:12;5.60;88.70
3416;DHT22;1721;51.238;9.562;2024-03-17T03:05:38;5.40;88.70
3416;DHT22;1721;51.238;9.562;2024-03-17T03:08:04;5.40;89.20
3416;DHT22;1721;51.238;9.562;2024-03-17T03:10:30;5.40;89.70
3416;DHT22;1721;51.238;9.562;2024-03-17T03:12:56;5.30;89.60
3416;DHT22;1721;51.238;9.562;2024-03-17T03:15:21;5.30;89.80
3416;DHT22;1721;51.238;9.562;2024-03-17T03:17:47;5.20;89.40
3416;DHT22;1721;51.238;9.562;2024-03-17T03:20:12;5.20;89.50
3416;DHT22;1721;51.238;9.562;2024-03-17T03:22:38;5.10;89.60
3416;DHT22;1721;51.238;9.562;2024-03-17T03:25:03;5.10;90.40
3416;DHT22;1721;51.238;9.562;2024-03-17T03:27:29;5.10;90.20
3416;DHT22;1721;51.238;9.562;2024-03-17T03:29:54;5.20;90.10
3416;DHT22;1721;51.238;9.562;2024-03-17T03:32:21;5.20;89.90
3416;DHT22;1721;51.238;9.562;2024-03-17T03:34:47;5.20;89.80
3416;DHT22;1721;51.238;9.562;2024-03-17T03:37:13;5.20;89.30
3416;DHT22;1721;51.238;9.562;2024-03-17T03:39:38;5.10;89.20
3416;DHT22;1721;51.238;9.562;2024-03-17T03:42:04;5.10;89.20
3416;DHT22;1721;51.238;9.562;2024-03-17T03:44:29;5.10;89.00
3416;DHT22;1721;51.238;9.562;2024-03-17T03:46:55;5.00;88.70
3416;DHT22;1721;51.238;9.562;2024-03-17T03:49:24;5.00;88.80
3416;DHT22;1721;51.238;9.562;2024-03-17T03:51:50;5.00;88.60
3416;DHT22;1721;51.238;9.562;2024-03-17T03:54:16;4.90;88.40
3416;DHT22;1721;51.238;9.562;2024-03-17T03:56:41;4.90;88.50
3416;DHT22;1721;51.238;9.562;2024-03-17T03:59:07;4.90;88.50
3416;DHT22;1721;51.238;9.562;2024-03-17T04:01:32;4.90;88.60
3416;DHT22;1721;51.238;9.562;2024-03-17T04:03:58;4.80;88.30
3416;DHT22;1721;51.238;9.562;2024-03-17T04:06:24;4.80;88.60
3416;DHT22;1721;51.238;9.562;2024-03-17T04:08:49;4.70;88.60
3416;DHT22;1721;51.238;9.562;2024-03-17T04:11:15;4.70;88.60
3416;DHT22;1721;51.238;9.562;2024-03-17T04:13:41;4.70;88.60
3416;DHT22;1721;51.238;9.562;2024-03-17T04:16:07;4.60;88.40
3416;DHT22;1721;51.238;9.562;2024-03-17T04:18:33;4.60;88.70
3416;DHT22;1721;51.238;9.562;2024-03-17T04:21:04;4.60;88.50
3416;DHT22;1721;51.238;9.562;2024-03-17T04:23:30;4.60;88.80
3416;DHT22;1721;51.238;9.562;2024-03-17T04:25:57;4.50;88.80
3416;DHT22;1721;51.238;9.562;2024-03-17T04:28:23;4.40;89.60
3416;DHT22;1721;51.238;9.562;2024-03-17T04:30:49;4.40;89.60
3416;DHT22;1721;51.238;9.562;2024-03-17T04:33:14;4.40;89.70
3416;DHT22;1721;51.238;9.562;2024-03-17T04:35:42;4.50;89.60
3416;DHT22;1721;51.238;9.562;2024-03-17T04:38:08;4.50;89.50
3416;DHT22;1721;51.238;9.562;2024-03-17T04:40:39;4.50;89.40
3416;DHT22;1721;51.238;9.562;2024-03-17T04:43:05;4.50;89.30
3416;DHT22;1721;51.238;9.562;2024-03-17T04:45:30;4.50;89.50
3416;DHT22;1721;51.238;9.562;2024-03-17T04:47:56;4.50;89.50
3416;DHT22;1721;51.238;9.562;2024-03-17T04:50:21;4.50;89.50
3416;DHT22;1721;51.238;9.562;2024-03-17T04:52:47;4.50;89.40
3416;DHT22;1721;51.238;9.562;2024-03-17T04:55:12;4.50;89.50
3416;DHT22;1721;51.238;9.562;2024-03-17T04:57:38;4.50;89.60
3416;DHT22;1721;51.238;9.562;2024-03-17T05:00:04;4.50;89.50
3416;DHT22;1721;51.238;9.562;2024-03-17T05:02:32;4.50;89.40
3416;DHT22;1721;51.238;9.562;2024-03-17T05:04:58;4.50;89.40
3416;DHT22;1721;51.238;9.562;2024-03-17T05:07:24;4.40;89.50
3416;DHT22;1721;51.238;9.562;2024-03-17T05:09:49;4.50;89.60
3416;DHT22;1721;51.238;9.562;2024-03-17T05:12:15;4.50;89.30
3416;DHT22;1721;51.238;9.562;2024-03-17T05:14:41;4.50;89.40
3416;DHT22;1721;51.238;9.562;2024-03-17T05:17:07;4.50;89.50
3416;DHT22;1721;51.238;9.562;2024-03-17T05:19:32;4.50;89.80
3416;DHT22;1721;51.238;9.562;2024-03-17T05:21:58;4.50;89.80
3416;DHT22;1721;51.238;9.562;2024-03-17T05:24:23;4.50;89.60
3416;DHT22;1721;51.238;9.562;2024-03-17T05:26:49;4.60;89.70
3416;DHT22;1721;51.238;9.562;2024-03-17T05:29:14;4.60;90.00
3416;DHT22;1721;51.238;9.562;2024-03-17T05:31:40;4.70;90.00
3416;DHT22;1721;51.238;9.562;2024-03-17T05:34:09;4.70;90.00
3416;DHT22;1721;51.238;9.562;2024-03-17T05:36:36;4.80;90.00
3416;DHT22;1721;51.238;9.562;2024-03-17T05:39:02;4.80;90.00
3416;DHT22;1721;51.238;9.562;2024-03-17T05:41:27;4.90;90.00
3416;DHT22;1721;51.238;9.562;2024-03-17T05:43:53;4.90;90.00
3416;DHT22;1721;51.238;9.562;2024-03-17T05:46:19;5.00;90.00
3416;DHT22;1721;51.238;9.562;2024-03-17T05:48:45;5.00;90.00
3416;DHT22;1721;51.238;9.562;2024-03-17T05:51:11;5.10;90.00
3416;DHT22;1721;51.238;9.562;2024-03-17T05:53:38;5.10;89.80
3416;DHT22;1721;51.238;9.562;2024-03-17T05:56:10;5.20;90.00
3416;DHT22;1721;51.238;9.562;2024-03-17T05:58:37;5.20;89.70
3416;DHT22;1721;51.238;9.562;2024-03-17T06:01:03;5.20;89.60
3416;DHT22;1721;51.238;9.562;2024-03-17T06:03:28;5.30;90.00
3416;DHT22;1721;51.238;9.562;2024-03-17T06:05:54;5.30;90.00
3416;DHT22;1721;51.238;9.562;2024-03-17T06:08:20;5.30;89.80
3416;DHT22;1721;51.238;9.562;2024-03-17T06:10:47;5.30;90.00
3416;DHT22;1721;51.238;9.562;2024-03-17T06:13:13;5.40;90.00
3416;DHT22;1721;51.238;9.562;2024-03-17T06:15:45;5.50;90.00
3416;DHT22;1721;51.238;9.562;2024-03-17T06:18:13;5.50;89.90
3416;DHT22;1721;51.238;9.562;2024-03-17T06:20:47;5.60;89.80
3416;DHT22;1721;51.238;9.562;2024-03-17T06:23:14;5.60;89.80
3416;DHT22;1721;51.238;9.562;2024-03-17T06:28:06;5.40;90.30
3416;DHT22;1721;51.238;9.562;2024-03-17T06:30:31;5.50;90.40
3416;DHT22;1721;51.238;9.562;2024-03-17T06:32:58;5.50;90.50
3416;DHT22;1721;51.238;9.562;2024-03-17T06:35:23;5.60;90.50
3416;DHT22;1721;51.238;9.562;2024-03-17T06:37:52;5.80;90.50
3416;DHT22;1721;51.238;9.562;2024-03-17T06:40:18;5.90;90.40
3416;DHT22;1721;51.238;9.562;2024-03-17T06:42:44;6.00;90.50
3416;DHT22;1721;51.238;9.562;2024-03-17T06:45:09;6.10;90.40
3416;DHT22;1721;51.238;9.562;2024-03-17T06:47:36;6.20;90.30
3416;DHT22;1721;51.238;9.562;2024-03-17T06:50:05;6.40;90.40
3416;DHT22;1721;51.238;9.562;2024-03-17T06:52:31;6.50;90.30
3416;DHT22;1721;51.238;9.562;2024-03-17T06:54:58;6.40;90.30
3416;DHT22;1721;51.238;9.562;2024-03-17T06:57:24;6.30;90.70
3416;DHT22;1721;51.238;9.562;2024-03-17T06:59:50;6.30;91.20
3416;DHT22;1721;51.238;9.562;2024-03-17T07:02:16;6.40;91.40
3416;DHT22;1721;51.238;9.562;2024-03-17T07:04:44;6.60;91.30
3416;DHT22;1721;51.238;9.562;2024-03-17T07:07:10;6.90;91.10
3416;DHT22;1721;51.238;9.562;2024-03-17T07:09:35;7.10;91.10
3416;DHT22;1721;51.238;9.562;2024-03-17T07:12:01;7.30;90.80
3416;DHT22;1721;51.238;9.562;2024-03-17T07:14:27;7.50;90.80
3416;DHT22;1721;51.238;9.562;2024-03-17T07:16:53;7.40;90.40
3416;DHT22;1721;51.238;9.562;2024-03-17T07:19:19;7.40;91.00
3416;DHT22;1721;51.238;9.562;2024-03-17T07:21:44;7.60;91.00
3416;DHT22;1721;51.238;9.562;2024-03-17T07:24:10;7.90;90.90
3416;DHT22;1721;51.238;9.562;2024-03-17T07:26:35;8.10;90.60
3416;DHT22;1721;51.238;9.562;2024-03-17T07:29:01;8.30;90.30
3416;DHT22;1721;51.238;9.562;2024-03-17T07:31:26;8.40;89.40
3416;DHT22;1721;51.238;9.562;2024-03-17T07:33:52;8.50;89.30
3416;DHT22;1721;51.238;9.562;2024-03-17T07:36:17;8.60;88.80
3416;DHT22;1721;51.238;9.562;2024-03-17T07:38:44;8.70;87.90
3416;DHT22;1721;51.238;9.562;2024-03-17T07:41:09;9.00;87.70
3416;DHT22;1721;51.238;9.562;2024-03-17T07:43:36;9.10;87.80
3416;DHT22;1721;51.238;9.562;2024-03-17T07:48:35;9.40;86.20
3416;DHT22;1721;51.238;9.562;2024-03-17T07:51:04;9.50;87.00
3416;DHT22;1721;51.238;9.562;2024-03-17T07:53:31;9.50;86.80
3416;DHT22;1721;51.238;9.562;2024-03-17T07:55:58;9.40;87.10
3416;DHT22;1721;51.238;9.562;2024-03-17T07:58:24;9.30;86.70
3416;DHT22;1721;51.238;9.562;2024-03-17T08:00:51;9.40;86.50
3416;DHT22;1721;51.238;9.562;2024-03-17T08:03:18;9.50;86.50
3416;DHT22;1721;51.238;9.562;2024-03-17T08:05:50;9.40;87.10
3416;DHT22;1721;51.238;9.562;2024-03-17T08:08:16;9.60;87.90
3416;DHT22;1721;51.238;9.562;2024-03-17T08:10:42;9.50;87.50
3416;DHT22;1721;51.238;9.562;2024-03-17T08:13:08;9.50;87.60
3416;DHT22;1721;51.238;9.562;2024-03-17T08:15:36;9.60;87.40
3416;DHT22;1721;51.238;9.562;2024-03-17T08:18:02;9.70;85.80
3416;DHT22;1721;51.238;9.562;2024-03-17T08:20:29;9.50;85.80
3416;DHT22;1721;51.238;9.562;2024-03-17T08:22:55;9.40;85.80
3416;DHT22;1721;51.238;9.562;2024-03-17T08:25:21;9.30;86.20
3416;DHT22;1721;51.238;9.562;2024-03-17T08:27:46;9.40;86.30
3416;DHT22;1721;51.238;9.562;2024-03-17T08:30:12;9.50;86.90
3416;DHT22;1721;51.238;9.562;2024-03-17T08:32:41;9.70;87.00
3416;DHT22;1721;51.238;9.562;2024-03-17T08:35:06;9.80;86.10
3416;DHT22;1721;51.238;9.562;2024-03-17T08:37:32;10.00;84.80
3416;DHT22;1721;51.238;9.562;2024-03-17T08:39:58;9.90;84.70
3416;DHT22;1721;51.238;9.562;2024-03-17T08:42:23;9.90;83.30
3416;DHT22;1721;51.238;9.562;2024-03-17T08:44:49;9.80;79.60
3416;DHT22;1721;51.238;9.562;2024-03-17T08:47:14;9.80;80.70
3416;DHT22;1721;51.238;9.562;2024-03-17T08:49:40;9.90;79.90
3416;DHT22;1721;51.238;9.562;2024-03-17T08:52:06;9.90;79.80
3416;DHT22;1721;51.238;9.562;2024-03-17T08:54:32;10.00;76.90
3416;DHT22;1721;51.238;9.562;2024-03-17T08:56:58;10.00;79.20
3416;DHT22;1721;51.238;9.562;2024-03-17T08:59:23;10.20;79.90
3416;DHT22;1721;51.238;9.562;2024-03-17T09:01:49;10.40;79.40
3416;DHT22;1721;51.238;9.562;2024-03-17T09:04:14;10.40;80.00
3416;DHT22;1721;51.238;9.562;2024-03-17T09:06:40;10.30;79.30
3416;DHT22;1721;51.238;9.562;2024-03-17T09:09:07;10.40;79.60
3416;DHT22;1721;51.238;9.562;2024-03-17T09:11:33;10.40;78.70
3416;DHT22;1721;51.238;9.562;2024-03-17T09:13:58;10.60;77.70
3416;DHT22;1721;51.238;9.562;2024-03-17T09:16:24;10.60;76.60
3416;DHT22;1721;51.238;9.562;2024-03-17T09:18:51;10.60;75.80
3416;DHT22;1721;51.238;9.562;2024-03-17T09:21:17;10.60;76.70
3416;DHT22;1721;51.238;9.562;2024-03-17T09:23:43;10.60;77.70
3416;DHT22;1721;51.238;9.562;2024-03-17T09:26:09;10.70;78.80
3416;DHT22;1721;51.238;9.562;2024-03-17T09:28:37;10.60;78.30
3416;DHT22;1721;51.238;9.562;2024-03-17T09:31:03;10.80;78.70
3416;DHT22;1721;51.238;9.562;2024-03-17T09:33:33;11.00;75.40
3416;DHT22;1721;51.238;9.562;2024-03-17T09:36:03;10.90;77.00
3416;DHT22;1721;51.238;9.562;2024-03-17T09:38:31;10.80;77.80
3416;DHT22;1721;51.238;9.562;2024-03-17T09:40:57;11.00;78.40
3416;DHT22;1721;51.238;9.562;2024-03-17T09:43:24;11.20;78.00
3416;DHT22;1721;51.238;9.562;2024-03-17T09:45:50;11.30;76.60
3416;DHT22;1721;51.238;9.562;2024-03-17T09:48:20;11.30;77.60
3416;DHT22;1721;51.238;9.562;2024-03-17T09:50:51;11.40;76.90
3416;DHT22;1721;51.238;9.562;2024-03-17T09:53:27;11.50;77.50
3416;DHT22;1721;51.238;9.562;2024-03-17T09:58:24;11.70;76.90
3416;DHT22;1721;51.238;9.562;2024-03-17T10:00:50;11.60;76.10
3416;DHT22;1721;51.238;9.562;2024-03-17T10:06:13;11.50;76.60
3416;DHT22;1721;51.238;9.562;2024-03-17T10:08:47;11.30;76.70
3416;DHT22;1721;51.238;9.562;2024-03-17T10:11:14;11.30;75.20
3416;DHT22;1721;51.238;9.562;2024-03-17T10:13:42;11.30;76.40
3416;DHT22;1721;51.238;9.562;2024-03-17T10:16:21;11.30;76.90
3416;DHT22;1721;51.238;9.562;2024-03-17T10:18:48;11.40;75.50
3416;DHT22;1721;51.238;9.562;2024-03-17T10:21:25;11.50;73.10
3416;DHT22;1721;51.238;9.562;2024-03-17T10:24:14;11.20;75.30
3416;DHT22;1721;51.238;9.562;2024-03-17T10:26:46;11.30;75.50
3416;DHT22;1721;51.238;9.562;2024-03-17T10:32:04;11.40;75.80
3416;DHT22;1721;51.238;9.562;2024-03-17T10:34:30;11.50;74.90
3416;DHT22;1721;51.238;9.562;2024-03-17T10:37:11;11.50;73.60
3416;DHT22;1721;51.238;9.562;2024-03-17T10:39:40;11.60;77.00
3416;DHT22;1721;51.238;9.562;2024-03-17T10:42:07;11.70;75.50
3416;DHT22;1721;51.238;9.562;2024-03-17T10:44:35;11.90;76.00
3416;DHT22;1721;51.238;9.562;2024-03-17T10:47:02;12.20;76.20
3416;DHT22;1721;51.238;9.562;2024-03-17T10:49:35;12.40;75.20
3416;DHT22;1721;51.238;9.562;2024-03-17T10:52:03;12.20;72.20
3416;DHT22;1721;51.238;9.562;2024-03-17T10:54:30;12.20;74.20
3416;DHT22;1721;51.238;9.562;2024-03-17T10:56:57;12.30;72.20
3416;DHT22;1721;51.238;9.562;2024-03-17T10:59:47;12.40;70.70
3416;DHT22;1721;51.238;9.562;2024-03-17T11:02:28;12.30;70.30
3416;DHT22;1721;51.238;9.562;2024-03-17T11:04:59;12.20;75.20
3416;DHT22;1721;51.238;9.562;2024-03-17T11:07:26;12.30;76.90
3416;DHT22;1721;51.238;9.562;2024-03-17T11:09:54;12.50;76.10
3416;DHT22;1721;51.238;9.562;2024-03-17T11:12:42;12.70;74.30
3416;DHT22;1721;51.238;9.562;2024-03-17T11:20:39;12.00;74.90
3416;DHT22;1721;51.238;9.562;2024-03-17T11:23:06;12.20;75.40
3416;DHT22;1721;51.238;9.562;2024-03-17T11:28:09;12.70;75.00
3416;DHT22;1721;51.238;9.562;2024-03-17T11:39:07;12.70;70.40
3416;DHT22;1721;51.238;9.562;2024-03-17T11:41:41;12.30;72.30
3416;DHT22;1721;51.238;9.562;2024-03-17T11:46:40;12.60;76.40
3416;DHT22;1721;51.238;9.562;2024-03-17T11:49:05;12.80;76.90
3416;DHT22;1721;51.238;9.562;2024-03-17T11:51:34;12.80;75.90
3416;DHT22;1721;51.238;9.562;2024-03-17T11:54:00;13.20;76.00
3416;DHT22;1721;51.238;9.562;2024-03-17T11:56:26;13.40;74.70
3416;DHT22;1721;51.238;9.562;2024-03-17T11:59:06;13.60;75.00
3416;DHT22;1721;51.238;9.562;2024-03-17T12:01:34;13.70;71.90
3416;DHT22;1721;51.238;9.562;2024-03-17T12:04:00;13.70;73.50
3416;DHT22;1721;51.238;9.562;2024-03-17T12:06:33;13.80;73.60
3416;DHT22;1721;51.238;9.562;2024-03-17T12:09:35;13.90;73.50
3416;DHT22;1721;51.238;9.562;2024-03-17T12:12:08;13.80;72.70
3416;DHT22;1721;51.238;9.562;2024-03-17T12:14:36;13.80;74.00
3416;DHT22;1721;51.238;9.562;2024-03-17T12:17:04;13.80;69.10
3416;DHT22;1721;51.238;9.562;2024-03-17T12:19:30;13.70;70.00
3416;DHT22;1721;51.238;9.562;2024-03-17T12:21:57;13.90;72.20
3416;DHT22;1721;51.238;9.562;2024-03-17T12:24:32;14.00;72.80
3416;DHT22;1721;51.238;9.562;2024-03-17T12:26:59;13.90;71.10
3416;DHT22;1721;51.238;9.562;2024-03-17T12:29:35;13.70;72.70
3416;DHT22;1721;51.238;9.562;2024-03-17T12:34:37;13.90;72.20
3416;DHT22;1721;51.238;9.562;2024-03-17T12:37:04;13.90;72.90
3416;DHT22;1721;51.238;9.562;2024-03-17T12:39:31;14.00;73.50
3416;DHT22;1721;51.238;9.562;2024-03-17T12:42:17;14.00;72.50
3416;DHT22;1721;51.238;9.562;2024-03-17T12:44:53;13.90;71.60
3416;DHT22;1721;51.238;9.562;2024-03-17T12:47:20;13.80;70.20
3416;DHT22;1721;51.238;9.562;2024-03-17T12:49:49;13.70;68.60
3416;DHT22;1721;51.238;9.562;2024-03-17T12:52:19;13.80;69.80
3416;DHT22;1721;51.238;9.562;2024-03-17T12:54:56;13.70;73.10
3416;DHT22;1721;51.238;9.562;2024-03-17T12:57:41;13.70;73.60
3416;DHT22;1721;51.238;9.562;2024-03-17T13:00:26;13.80;74.10
3416;DHT22;1721;51.238;9.562;2024-03-17T13:02:58;14.00;73.00
3416;DHT22;1721;51.238;9.562;2024-03-17T13:05:24;14.10;70.10
3416;DHT22;1721;51.238;9.562;2024-03-17T13:07:50;14.30;69.90
3416;DHT22;1721;51.238;9.562;2024-03-17T13:10:17;14.50;70.70
3416;DHT22;1721;51.238;9.562;2024-03-17T13:12:44;14.50;71.40
3416;DHT22;1721;51.238;9.562;2024-03-17T13:15:12;14.50;71.00
3416;DHT22;1721;51.238;9.562;2024-03-17T13:17:39;14.40;71.40
3416;DHT22;1721;51.238;9.562;2024-03-17T13:20:06;14.60;72.40
3416;DHT22;1721;51.238;9.562;2024-03-17T13:22:36;14.60;73.00
3416;DHT22;1721;51.238;9.562;2024-03-17T13:25:04;14.60;72.60
3416;DHT22;1721;51.238;9.562;2024-03-17T13:27:31;14.50;71.50
3416;DHT22;1721;51.238;9.562;2024-03-17T13:29:56;14.50;71.40
3416;DHT22;1721;51.238;9.562;2024-03-17T13:32:22;14.10;71.50
3416;DHT22;1721;51.238;9.562;2024-03-17T13:34:48;14.00;74.20
3416;DHT22;1721;51.238;9.562;2024-03-17T13:37:13;14.20;73.90
3416;DHT22;1721;51.238;9.562;2024-03-17T13:39:39;14.20;71.40
3416;DHT22;1721;51.238;9.562;2024-03-17T13:42:04;14.30;70.80
3416;DHT22;1721;51.238;9.562;2024-03-17T13:44:30;14.50;71.30
3416;DHT22;1721;51.238;9.562;2024-03-17T13:46:57;14.60;72.40
3416;DHT22;1721;51.238;9.562;2024-03-17T13:49:23;14.70;71.70
3416;DHT22;1721;51.238;9.562;2024-03-17T13:51:49;14.80;71.40
3416;DHT22;1721;51.238;9.562;2024-03-17T13:54:15;15.00;70.70
3416;DHT22;1721;51.238;9.562;2024-03-17T13:56:40;15.00;72.50
3416;DHT22;1721;51.238;9.562;2024-03-17T13:59:06;15.00;70.40
3416;DHT22;1721;51.238;9.562;2024-03-17T14:01:32;15.10;67.60
3416;DHT22;1721;51.238;9.562;2024-03-17T14:03:58;15.20;67.20
3416;DHT22;1721;51.238;9.562;2024-03-17T14:06:23;15.20;67.90
3416;DHT22;1721;51.238;9.562;2024-03-17T14:08:49;14.80;70.10
3416;DHT22;1721;51.238;9.562;2024-03-17T14:11:15;14.90;69.20
3416;DHT22;1721;51.238;9.562;2024-03-17T14:13:40;15.00;70.10
3416;DHT22;1721;51.238;9.562;2024-03-17T14:16:06;15.20;71.10
3416;DHT22;1721;51.238;9.562;2024-03-17T14:18:32;15.00;69.20
3416;DHT22;1721;51.238;9.562;2024-03-17T14:20:58;14.70;70.70
3416;DHT22;1721;51.238;9.562;2024-03-17T14:23:24;14.60;71.10
3416;DHT22;1721;51.238;9.562;2024-03-17T14:25:50;14.80;71.80
3416;DHT22;1721;51.238;9.562;2024-03-17T14:28:16;14.90;70.90
3416;DHT22;1721;51.238;9.562;2024-03-17T14:30:41;15.10;70.80
3416;DHT22;1721;51.238;9.562;2024-03-17T14:33:07;15.30;70.20
3416;DHT22;1721;51.238;9.562;2024-03-17T14:35:33;15.40;69.80
3416;DHT22;1721;51.238;9.562;2024-03-17T14:37:59;15.40;68.80
3416;DHT22;1721;51.238;9.562;2024-03-17T14:40:25;15.30;68.60
3416;DHT22;1721;51.238;9.562;2024-03-17T14:42:54;15.40;68.80
3416;DHT22;1721;51.238;9.562;2024-03-17T14:45:21;15.30;67.90
3416;DHT22;1721;51.238;9.562;2024-03-17T14:47:49;15.40;68.10
3416;DHT22;1721;51.238;9.562;2024-03-17T14:50:15;15.30;67.70
3416;DHT22;1721;51.238;9.562;2024-03-17T14:52:44;15.30;68.00
3416;DHT22;1721;51.238;9.562;2024-03-17T14:55:11;15.30;67.50
3416;DHT22;1721;51.238;9.562;2024-03-17T14:57:37;15.30;67.70
3416;DHT22;1721;51.238;9.562;2024-03-17T15:00:06;15.40;66.90
3416;DHT22;1721;51.238;9.562;2024-03-17T15:02:39;15.20;68.20
3416;DHT22;1721;51.238;9.562;2024-03-17T15:05:06;15.20;68.30
3416;DHT22;1721;51.238;9.562;2024-03-17T15:07:32;15.20;68.30
3416;DHT22;1721;51.238;9.562;2024-03-17T15:09:57;15.20;68.60
3416;DHT22;1721;51.238;9.562;2024-03-17T15:12:23;15.30;68.40
3416;DHT22;1721;51.238;9.562;2024-03-17T15:14:49;15.30;68.60
3416;DHT22;1721;51.238;9.562;2024-03-17T15:17:15;15.20;67.70
3416;DHT22;1721;51.238;9.562;2024-03-17T15:19:41;15.00;67.00
3416;DHT22;1721;51.238;9.562;2024-03-17T15:22:08;14.50;69.40
3416;DHT22;1721;51.238;9.562;2024-03-17T15:24:34;14.10;69.70
3416;DHT22;1721;51.238;9.562;2024-03-17T15:27:00;13.90;70.20
3416;DHT22;1721;51.238;9.562;2024-03-17T15:29:25;13.90;68.40
3416;DHT22;1721;51.238;9.562;2024-03-17T15:31:51;13.90;69.00
3416;DHT22;1721;51.238;9.562;2024-03-17T15:34:16;14.10;68.70
3416;DHT22;1721;51.238;9.562;2024-03-17T15:36:42;14.20;68.80
3416;DHT22;1721;51.238;9.562;2024-03-17T15:39:09;14.50;68.10
3416;DHT22;1721;51.238;9.562;2024-03-17T15:41:37;14.50;67.70
3416;DHT22;1721;51.238;9.562;2024-03-17T15:44:02;14.60;68.10
3416;DHT22;1721;51.238;9.562;2024-03-17T15:46:28;14.40;67.30
3416;DHT22;1721;51.238;9.562;2024-03-17T15:48:54;14.50;68.10
3416;DHT22;1721;51.238;9.562;2024-03-17T15:51:20;14.50;68.00
3416;DHT22;1721;51.238;9.562;2024-03-17T15:53:49;14.60;68.30
3416;DHT22;1721;51.238;9.562;2024-03-17T15:56:15;14.60;68.20
3416;DHT22;1721;51.238;9.562;2024-03-17T15:58:41;14.50;68.60
3416;DHT22;1721;51.238;9.562;2024-03-17T16:01:08;14.50;69.00
3416;DHT22;1721;51.238;9.562;2024-03-17T16:03:36;14.60;69.50
3416;DHT22;1721;51.238;9.562;2024-03-17T16:06:10;14.70;70.10
3416;DHT22;1721;51.238;9.562;2024-03-17T16:08:40;14.70;70.30
3416;DHT22;1721;51.238;9.562;2024-03-17T16:11:09;14.60;70.00
3416;DHT22;1721;51.238;9.562;2024-03-17T16:13:39;14.60;70.50
3416;DHT22;1721;51.238;9.562;2024-03-17T16:16:07;14.50;71.00
3416;DHT22;1721;51.238;9.562;2024-03-17T16:18:35;14.50;71.40
3416;DHT22;1721;51.238;9.562;2024-03-17T16:21:08;14.50;71.60
3416;DHT22;1721;51.238;9.562;2024-03-17T16:23:41;14.40;71.70
3416;DHT22;1721;51.238;9.562;2024-03-17T16:26:08;14.30;71.00
3416;DHT22;1721;51.238;9.562;2024-03-17T16:28:35;14.30;71.40
3416;DHT22;1721;51.238;9.562;2024-03-17T16:31:02;14.30;71.90
3416;DHT22;1721;51.238;9.562;2024-03-17T16:33:28;14.20;72.00
3416;DHT22;1721;51.238;9.562;2024-03-17T16:35:55;14.20;72.00
3416;DHT22;1721;51.238;9.562;2024-03-17T16:38:22;14.10;72.40
3416;DHT22;1721;51.238;9.562;2024-03-17T16:40:48;14.00;72.60
3416;DHT22;1721;51.238;9.562;2024-03-17T16:43:24;13.90;72.90